sensor_id;sensor_type;location;lat;lon;timestamp;P1;durP1;ratioP1;P2;durP2;ratioP2
16254;SDS011;8235;52.198;9.904;2023-03-26T00:00:15;4.17;;;3.03;;
16254;SDS011;8235;52.198;9.904;2023-03-26T00:02:42;5.13;;;3.47;;
16254;SDS011;8235;52.198;9.904;2023-03-26T00:05:09;5.37;;;3.20;;
16254;SDS011;8235;52.198;9.904;2023-03-26T00:07:38;6.43;;;3.83;;
16254;SDS011;8235;52.198;9.904;2023-03-26T00:10:05;5.73;;;4.23;;
16254;SDS011;8235;52.198;9.904;2023-03-26T00:12:32;4.83;;;3.43;;
16254;SDS011;8235;52.198;9.904;2023-03-26T00:14:58;4.53;;;3.33;;
16254;SDS011;8235;52.198;9.904;2023-03-26T00:17:26;6.00;;;3.20;;
16254;SDS011;8235;52.198;9.904;2023-03-26T00:19:53;6.70;;;3.57;;
16254;SDS011;8235;52.198;9.904;2023-03-26T00:22:21;6.77;;;3.80;;
16254;SDS011;8235;52.198;9.904;2023-03-26T00:24:47;10.10;;;3.93;;
16254;SDS011;8235;52.198;9.904;2023-03-26T00:27:15;9.00;;;3.43;;
16254;SDS011;8235;52.198;9.904;2023-03-26T00:29:41;5.67;;;3.83;;
16254;SDS011;8235;52.198;9.904;2023-03-26T00:32:08;6.47;;;3.90;;
16254;SDS011;8235;52.198;9.904;2023-03-26T00:34:36;7.73;;;3.87;;
16254;SDS011;8235;52.198;9.904;2023-03-26T00:37:05;6.57;;;4.30;;
16254;SDS011;8235;52.198;9.904;2023-03-26T00:39:32;6.13;;;3.83;;
16254;SDS011;8235;52.198;9.904;2023-03-26T00:42:01;7.90;;;3.30;;
16254;SDS011;8235;52.198;9.904;2023-03-26T00:44:31;6.00;;;2.87;;
16254;SDS011;8235;52.198;9.904;2023-03-26T00:46:58;6.07;;;3.03;;
16254;SDS011;8235;52.198;9.904;2023-03-26T00:49:24;3.80;;;3.00;;
16254;SDS011;8235;52.198;9.904;2023-03-26T00:51:52;6.87;;;3.23;;
16254;SDS011;8235;52.198;9.904;2023-03-26T00:54:19;6.83;;;3.13;;
16254;SDS011;8235;52.198;9.904;2023-03-26T00:56:45;8.50;;;3.37;;
16254;SDS011;8235;52.198;9.904;2023-03-26T00:59:12;5.17;;;3.10;;
16254;SDS011;8235;52.198;9.904;2023-03-26T01:01:38;5.23;;;2.97;;
16254;SDS011;8235;52.198;9.904;2023-03-26T01:04:19;6.97;;;3.03;;
16254;SDS011;8235;52.198;9.904;2023-03-26T01:06:52;5.93;;;3.10;;
16254;SDS011;8235;52.198;9.904;2023-03-26T01:09:21;5.07;;;2.90;;
16254;SDS011;8235;52.198;9.904;2023-03-26T01:11:57;5.93;;;2.97;;
16254;SDS011;8235;52.198;9.904;2023-03-26T01:14:25;4.60;;;2.93;;
16254;SDS011;8235;52.198;9.904;2023-03-26T01:16:53;6.03;;;3.07;;
16254;SDS011;8235;52.198;9.904;2023-03-26T01:19:22;7.40;;;2.93;;
16254;SDS011;8235;52.198;9.904;2023-03-26T01:21:55;6.67;;;3.23;;
16254;SDS011;8235;52.198;9.904;2023-03-26T01:24:24;4.63;;;3.00;;
16254;SDS011;8235;52.198;9.904;2023-03-26T01:26:58;3.50;;;2.50;;
16254;SDS011;8235;52.198;9.904;2023-03-26T01:29:36;7.47;;;2.67;;
16254;SDS011;8235;52.198;9.904;2023-03-26T01:32:12;3.80;;;2.60;;
16254;SDS011;8235;52.198;9.904;2023-03-26T01:34:50;4.27;;;2.57;;
16254;SDS011;8235;52.198;9.904;2023-03-26T01:37:27;5.17;;;2.40;;
16254;SDS011;8235;52.198;9.904;2023-03-26T01:40:03;3.13;;;2.10;;
16254;SDS011;8235;52.198;9.904;2023-03-26T01:42:36;5.37;;;2.30;;
16254;SDS011;8235;52.198;9.904;2023-03-26T01:45:08;5.03;;;2.00;;
16254;SDS011;8235;52.198;9.904;2023-03-26T01:47:38;3.13;;;1.80;;
16254;SDS011;8235;52.198;9.904;2023-03-26T01:50:07;3.30;;;2.30;;
16254;SDS011;8235;52.198;9.904;2023-03-26T01:52:35;5.33;;;1.90;;
16254;SDS011;8235;52.198;9.904;2023-03-26T01:55:01;4.03;;;1.50;;
16254;SDS011;8235;52.198;9.904;2023-03-26T01:57:33;3.33;;;1.63;;
16254;SDS011;8235;52.198;9.904;2023-03-26T02:00:09;2.13;;;1.50;;
16254;SDS011;8235;52.198;9.904;2023-03-26T02:02:48;3.53;;;1.70;;
16254;SDS011;8235;52.198;9.904;2023-03-26T02:05:25;7.03;;;2.40;;
16254;SDS011;8235;52.198;9.904;2023-03-26T02:07:56;5.60;;;2.13;;
16254;SDS011;8235;52.198;9.904;2023-03-26T02:10:36;3.50;;;1.63;;
16254;SDS011;8235;52.198;9.904;2023-03-26T02:13:05;5.27;;;1.80;;
16254;SDS011;8235;52.198;9.904;2023-03-26T02:15:32;1.83;;;1.47;;
16254;SDS011;8235;52.198;9.904;2023-03-26T02:17:59;3.57;;;1.20;;
16254;SDS011;8235;52.198;9.904;2023-03-26T02:20:26;3.93;;;1.30;;
16254;SDS011;8235;52.198;9.904;2023-03-26T02:22:54;5.20;;;1.33;;
16254;SDS011;8235;52.198;9.904;2023-03-26T02:25:21;2.43;;;1.70;;
16254;SDS011;8235;52.198;9.904;2023-03-26T02:27:50;5.53;;;2.20;;
16254;SDS011;8235;52.198;9.904;2023-03-26T02:30:18;5.13;;;2.17;;
16254;SDS011;8235;52.198;9.904;2023-03-26T02:32:49;5.10;;;2.93;;
16254;SDS011;8235;52.198;9.904;2023-03-26T02:35:18;7.17;;;2.37;;
16254;SDS011;8235;52.198;9.904;2023-03-26T02:37:45;5.50;;;2.83;;
16254;SDS011;8235;52.198;9.904;2023-03-26T02:40:15;6.57;;;3.40;;
16254;SDS011;8235;52.198;9.904;2023-03-26T02:42:42;5.03;;;2.40;;
16254;SDS011;8235;52.198;9.904;2023-03-26T02:45:10;7.03;;;2.70;;
16254;SDS011;8235;52.198;9.904;2023-03-26T02:47:36;3.10;;;2.20;;
16254;SDS011;8235;52.198;9.904;2023-03-26T02:50:03;3.53;;;2.27;;
16254;SDS011;8235;52.198;9.904;2023-03-26T02:52:30;5.47;;;2.27;;
16254;SDS011;8235;52.198;9.904;2023-03-26T02:54:57;4.07;;;1.87;;
16254;SDS011;8235;52.198;9.904;2023-03-26T02:57:24;6.10;;;2.23;;
16254;SDS011;8235;52.198;9.904;2023-03-26T02:59:50;6.57;;;2.20;;
16254;SDS011;8235;52.198;9.904;2023-03-26T03:02:19;5.70;;;2.23;;
16254;SDS011;8235;52.198;9.904;2023-03-26T03:04:48;4.70;;;2.40;;
16254;SDS011;8235;52.198;9.904;2023-03-26T03:07:15;5.10;;;2.43;;
16254;SDS011;8235;52.198;9.904;2023-03-26T03:09:42;3.63;;;2.60;;
16254;SDS011;8235;52.198;9.904;2023-03-26T03:12:08;4.80;;;2.37;;
16254;SDS011;8235;52.198;9.904;2023-03-26T03:14:35;4.27;;;2.40;;
16254;SDS011;8235;52.198;9.904;2023-03-26T03:17:02;6.30;;;2.57;;
16254;SDS011;8235;52.198;9.904;2023-03-26T03:19:30;6.70;;;2.27;;
16254;SDS011;8235;52.198;9.904;2023-03-26T03:21:56;6.63;;;3.00;;
16254;SDS011;8235;52.198;9.904;2023-03-26T03:24:22;4.60;;;2.50;;
16254;SDS011;8235;52.198;9.904;2023-03-26T03:26:51;6.33;;;2.70;;
16254;SDS011;8235;52.198;9.904;2023-03-26T03:29:19;3.67;;;2.50;;
16254;SDS011;8235;52.198;9.904;2023-03-26T03:31:45;4.47;;;2.70;;
16254;SDS011;8235;52.198;9.904;2023-03-26T03:34:11;6.50;;;2.40;;
16254;SDS011;8235;52.198;9.904;2023-03-26T03:36:39;3.40;;;2.40;;
16254;SDS011;8235;52.198;9.904;2023-03-26T03:39:06;4.27;;;2.60;;
16254;SDS011;8235;52.198;9.904;2023-03-26T03:41:32;6.10;;;2.43;;
16254;SDS011;8235;52.198;9.904;2023-03-26T03:43:59;4.80;;;2.53;;
16254;SDS011;8235;52.198;9.904;2023-03-26T03:46:25;6.40;;;2.30;;
16254;SDS011;8235;52.198;9.904;2023-03-26T03:48:52;6.00;;;2.57;;
16254;SDS011;8235;52.198;9.904;2023-03-26T03:51:18;6.50;;;2.03;;
16254;SDS011;8235;52.198;9.904;2023-03-26T03:53:47;6.00;;;2.40;;
16254;SDS011;8235;52.198;9.904;2023-03-26T03:56:14;4.43;;;2.20;;
16254;SDS011;8235;52.198;9.904;2023-03-26T03:58:43;2.90;;;1.83;;
16254;SDS011;8235;52.198;9.904;2023-03-26T04:01:11;6.93;;;2.60;;
16254;SDS011;8235;52.198;9.904;2023-03-26T04:03:39;6.13;;;2.23;;
16254;SDS011;8235;52.198;9.904;2023-03-26T04:06:05;5.40;;;2.70;;
16254;SDS011;8235;52.198;9.904;2023-03-26T04:08:35;7.10;;;2.60;;
16254;SDS011;8235;52.198;9.904;2023-03-26T04:11:03;5.57;;;2.80;;
16254;SDS011;8235;52.198;9.904;2023-03-26T04:13:30;5.40;;;2.57;;
16254;SDS011;8235;52.198;9.904;2023-03-26T04:15:56;5.63;;;2.90;;
16254;SDS011;8235;52.198;9.904;2023-03-26T04:18:23;4.57;;;3.07;;
16254;SDS011;8235;52.198;9.904;2023-03-26T04:20:50;4.97;;;3.10;;
16254;SDS011;8235;52.198;9.904;2023-03-26T04:23:18;4.90;;;2.53;;
16254;SDS011;8235;52.198;9.904;2023-03-26T04:25:45;5.80;;;2.67;;
16254;SDS011;8235;52.198;9.904;2023-03-26T04:28:21;5.00;;;2.80;;
16254;SDS011;8235;52.198;9.904;2023-03-26T04:30:54;6.07;;;3.03;;
16254;SDS011;8235;52.198;9.904;2023-03-26T04:33:24;6.20;;;2.83;;
16254;SDS011;8235;52.198;9.904;2023-03-26T04:35:52;4.47;;;2.93;;
16254;SDS011;8235;52.198;9.904;2023-03-26T04:38:20;6.70;;;3.47;;
16254;SDS011;8235;52.198;9.904;2023-03-26T04:40:47;5.27;;;3.50;;
16254;SDS011;8235;52.198;9.904;2023-03-26T04:43:15;6.33;;;3.93;;
16254;SDS011;8235;52.198;9.904;2023-03-26T04:45:43;11.70;;;4.50;;
16254;SDS011;8235;52.198;9.904;2023-03-26T04:48:11;8.10;;;3.97;;
16254;SDS011;8235;52.198;9.904;2023-03-26T04:50:39;8.57;;;4.33;;
16254;SDS011;8235;52.198;9.904;2023-03-26T04:53:08;8.33;;;4.87;;
16254;SDS011;8235;52.198;9.904;2023-03-26T04:55:38;7.83;;;3.97;;
16254;SDS011;8235;52.198;9.904;2023-03-26T04:58:09;10.27;;;5.27;;
16254;SDS011;8235;52.198;9.904;2023-03-26T05:00:38;10.90;;;5.37;;
16254;SDS011;8235;52.198;9.904;2023-03-26T05:03:07;9.17;;;4.70;;
16254;SDS011;8235;52.198;9.904;2023-03-26T05:05:35;12.93;;;5.43;;
16254;SDS011;8235;52.198;9.904;2023-03-26T05:08:02;7.07;;;4.30;;
16254;SDS011;8235;52.198;9.904;2023-03-26T05:10:28;9.37;;;4.40;;
16254;SDS011;8235;52.198;9.904;2023-03-26T05:12:55;8.57;;;4.07;;
16254;SDS011;8235;52.198;9.904;2023-03-26T05:15:21;9.40;;;4.87;;
16254;SDS011;8235;52.198;9.904;2023-03-26T05:17:48;7.47;;;4.30;;
16254;SDS011;8235;52.198;9.904;2023-03-26T05:20:18;7.47;;;4.90;;
16254;SDS011;8235;52.198;9.904;2023-03-26T05:22:46;6.07;;;4.00;;
16254;SDS011;8235;52.198;9.904;2023-03-26T05:25:14;8.27;;;4.30;;
16254;SDS011;8235;52.198;9.904;2023-03-26T05:27:40;10.67;;;4.73;;
16254;SDS011;8235;52.198;9.904;2023-03-26T05:30:07;7.70;;;4.70;;
16254;SDS011;8235;52.198;9.904;2023-03-26T05:32:34;8.33;;;4.33;;
16254;SDS011;8235;52.198;9.904;2023-03-26T05:35:02;10.10;;;4.70;;
16254;SDS011;8235;52.198;9.904;2023-03-26T05:37:31;6.87;;;4.67;;
16254;SDS011;8235;52.198;9.904;2023-03-26T05:39:57;9.10;;;4.60;;
16254;SDS011;8235;52.198;9.904;2023-03-26T05:42:24;9.13;;;4.20;;
16254;SDS011;8235;52.198;9.904;2023-03-26T05:44:51;8.07;;;4.67;;
16254;SDS011;8235;52.198;9.904;2023-03-26T05:47:17;7.57;;;4.20;;
16254;SDS011;8235;52.198;9.904;2023-03-26T05:49:44;8.67;;;4.80;;
16254;SDS011;8235;52.198;9.904;2023-03-26T05:52:11;8.10;;;4.63;;
16254;SDS011;8235;52.198;9.904;2023-03-26T05:54:40;10.23;;;4.60;;
16254;SDS011;8235;52.198;9.904;2023-03-26T05:57:07;7.10;;;4.50;;
16254;SDS011;8235;52.198;9.904;2023-03-26T05:59:33;11.93;;;4.53;;
16254;SDS011;8235;52.198;9.904;2023-03-26T06:02:00;9.90;;;4.63;;
16254;SDS011;8235;52.198;9.904;2023-03-26T06:04:27;11.00;;;5.03;;
16254;SDS011;8235;52.198;9.904;2023-03-26T06:06:53;9.33;;;5.03;;
16254;SDS011;8235;52.198;9.904;2023-03-26T06:09:21;11.70;;;5.53;;
16254;SDS011;8235;52.198;9.904;2023-03-26T06:11:49;9.97;;;4.50;;
16254;SDS011;8235;52.198;9.904;2023-03-26T06:14:15;10.17;;;4.87;;
16254;SDS011;8235;52.198;9.904;2023-03-26T06:16:42;9.93;;;5.00;;
16254;SDS011;8235;52.198;9.904;2023-03-26T06:19:08;6.60;;;4.40;;
16254;SDS011;8235;52.198;9.904;2023-03-26T06:21:35;7.67;;;4.97;;
16254;SDS011;8235;52.198;9.904;2023-03-26T06:24:01;10.53;;;5.83;;
16254;SDS011;8235;52.198;9.904;2023-03-26T06:26:28;8.07;;;5.00;;
16254;SDS011;8235;52.198;9.904;2023-03-26T06:28:55;9.80;;;4.70;;
16254;SDS011;8235;52.198;9.904;2023-03-26T06:31:22;10.73;;;4.70;;
16254;SDS011;8235;52.198;9.904;2023-03-26T06:33:48;9.20;;;5.07;;
16254;SDS011;8235;52.198;9.904;2023-03-26T06:36:15;9.30;;;5.37;;
16254;SDS011;8235;52.198;9.904;2023-03-26T06:38:41;13.40;;;4.40;;
16254;SDS011;8235;52.198;9.904;2023-03-26T06:41:09;10.77;;;5.10;;
16254;SDS011;8235;52.198;9.904;2023-03-26T06:43:35;8.27;;;4.43;;
16254;SDS011;8235;52.198;9.904;2023-03-26T06:46:04;9.23;;;5.00;;
16254;SDS011;8235;52.198;9.904;2023-03-26T06:48:31;9.50;;;4.90;;
16254;SDS011;8235;52.198;9.904;2023-03-26T06:50:57;9.00;;;4.33;;
16254;SDS011;8235;52.198;9.904;2023-03-26T06:53:24;7.27;;;4.77;;
16254;SDS011;8235;52.198;9.904;2023-03-26T06:55:51;6.47;;;4.13;;
16254;SDS011;8235;52.198;9.904;2023-03-26T06:58:18;6.23;;;4.30;;
16254;SDS011;8235;52.198;9.904;2023-03-26T07:00:45;7.87;;;2.70;;
16254;SDS011;8235;52.198;9.904;2023-03-26T07:03:15;7.30;;;3.57;;
16254;SDS011;8235;52.198;9.904;2023-03-26T07:05:42;7.63;;;2.90;;
16254;SDS011;8235;52.198;9.904;2023-03-26T07:08:08;8.40;;;3.03;;
16254;SDS011;8235;52.198;9.904;2023-03-26T07:10:35;7.83;;;2.60;;
16254;SDS011;8235;52.198;9.904;2023-03-26T07:13:01;5.67;;;2.13;;
16254;SDS011;8235;52.198;9.904;2023-03-26T07:15:28;4.50;;;2.27;;
16254;SDS011;8235;52.198;9.904;2023-03-26T07:17:54;5.80;;;1.80;;
16254;SDS011;8235;52.198;9.904;2023-03-26T07:20:22;5.80;;;1.73;;
16254;SDS011;8235;52.198;9.904;2023-03-26T07:22:49;4.17;;;2.13;;
16254;SDS011;8235;52.198;9.904;2023-03-26T07:25:17;8.03;;;2.47;;
16254;SDS011;8235;52.198;9.904;2023-03-26T07:27:45;6.97;;;2.23;;
16254;SDS011;8235;52.198;9.904;2023-03-26T07:30:23;6.93;;;2.40;;
16254;SDS011;8235;52.198;9.904;2023-03-26T07:32:57;8.67;;;2.27;;
16254;SDS011;8235;52.198;9.904;2023-03-26T07:35:29;6.13;;;2.00;;
16254;SDS011;8235;52.198;9.904;2023-03-26T07:38:06;5.23;;;1.90;;
16254;SDS011;8235;52.198;9.904;2023-03-26T07:40:44;6.43;;;2.13;;
16254;SDS011;8235;52.198;9.904;2023-03-26T07:43:21;5.07;;;1.80;;
16254;SDS011;8235;52.198;9.904;2023-03-26T07:45:56;7.50;;;2.20;;
16254;SDS011;8235;52.198;9.904;2023-03-26T07:48:23;5.60;;;2.27;;
16254;SDS011;8235;52.198;9.904;2023-03-26T07:50:53;9.00;;;2.40;;
16254;SDS011;8235;52.198;9.904;2023-03-26T07:53:20;4.13;;;1.70;;
16254;SDS011;8235;52.198;9.904;2023-03-26T07:55:49;4.87;;;2.23;;
16254;SDS011;8235;52.198;9.904;2023-03-26T07:58:30;4.60;;;1.83;;
16254;SDS011;8235;52.198;9.904;2023-03-26T08:01:17;5.23;;;1.83;;
16254;SDS011;8235;52.198;9.904;2023-03-26T08:03:52;3.67;;;2.00;;
16254;SDS011;8235;52.198;9.904;2023-03-26T08:06:32;7.00;;;1.80;;
16254;SDS011;8235;52.198;9.904;2023-03-26T08:09:03;3.53;;;1.77;;
16254;SDS011;8235;52.198;9.904;2023-03-26T08:11:39;4.93;;;1.60;;
16254;SDS011;8235;52.198;9.904;2023-03-26T08:14:24;3.80;;;1.77;;
16254;SDS011;8235;52.198;9.904;2023-03-26T08:16:59;4.80;;;1.87;;
16254;SDS011;8235;52.198;9.904;2023-03-26T08:19:39;5.80;;;1.87;;
16254;SDS011;8235;52.198;9.904;2023-03-26T08:22:15;6.50;;;2.07;;
16254;SDS011;8235;52.198;9.904;2023-03-26T08:24:55;5.17;;;2.00;;
16254;SDS011;8235;52.198;9.904;2023-03-26T08:27:42;2.57;;;1.60;;
16254;SDS011;8235;52.198;9.904;2023-03-26T08:30:18;3.63;;;1.37;;
16254;SDS011;8235;52.198;9.904;2023-03-26T08:32:48;4.23;;;1.70;;
16254;SDS011;8235;52.198;9.904;2023-03-26T08:35:19;5.17;;;1.87;;
16254;SDS011;8235;52.198;9.904;2023-03-26T08:37:47;5.83;;;1.57;;
16254;SDS011;8235;52.198;9.904;2023-03-26T08:40:15;4.37;;;1.77;;
16254;SDS011;8235;52.198;9.904;2023-03-26T08:43:08;3.87;;;1.53;;
16254;SDS011;8235;52.198;9.904;2023-03-26T08:46:08;4.10;;;1.27;;
16254;SDS011;8235;52.198;9.904;2023-03-26T08:48:58;4.33;;;1.20;;
16254;SDS011;8235;52.198;9.904;2023-03-26T08:51:46;3.37;;;1.20;;
16254;SDS011;8235;52.198;9.904;2023-03-26T08:54:54;3.70;;;1.10;;
16254;SDS011;8235;52.198;9.904;2023-03-26T09:00:51;1.97;;;1.20;;
16254;SDS011;8235;52.198;9.904;2023-03-26T09:03:38;2.47;;;1.37;;
16254;SDS011;8235;52.198;9.904;2023-03-26T09:06:27;5.20;;;1.63;;
16254;SDS011;8235;52.198;9.904;2023-03-26T09:18:46;6.07;;;1.80;;
16254;SDS011;8235;52.198;9.904;2023-03-26T09:27:44;3.40;;;2.00;;
16254;SDS011;8235;52.198;9.904;2023-03-26T09:30:39;3.67;;;2.07;;
16254;SDS011;8235;52.198;9.904;2023-03-26T09:33:48;5.50;;;1.93;;
16254;SDS011;8235;52.198;9.904;2023-03-26T09:36:29;5.50;;;2.37;;
16254;SDS011;8235;52.198;9.904;2023-03-26T09:39:08;5.47;;;2.30;;
16254;SDS011;8235;52.198;9.904;2023-03-26T09:41:43;3.87;;;1.97;;
16254;SDS011;8235;52.198;9.904;2023-03-26T09:44:29;6.30;;;2.30;;
16254;SDS011;8235;52.198;9.904;2023-03-26T09:47:17;5.67;;;2.63;;
16254;SDS011;8235;52.198;9.904;2023-03-26T09:53:15;5.93;;;2.07;;
16254;SDS011;8235;52.198;9.904;2023-03-26T09:56:00;6.83;;;2.53;;
16254;SDS011;8235;52.198;9.904;2023-03-26T09:58:48;6.53;;;2.70;;
16254;SDS011;8235;52.198;9.904;2023-03-26T10:01:27;4.67;;;2.37;;
16254;SDS011;8235;52.198;9.904;2023-03-26T10:04:03;5.17;;;2.50;;
16254;SDS011;8235;52.198;9.904;2023-03-26T10:06:53;4.30;;;2.20;;
16254;SDS011;8235;52.198;9.904;2023-03-26T10:09:32;4.60;;;2.47;;
16254;SDS011;8235;52.198;9.904;2023-03-26T10:12:22;4.10;;;2.90;;
16254;SDS011;8235;52.198;9.904;2023-03-26T10:15:01;6.47;;;2.70;;
16254;SDS011;8235;52.198;9.904;2023-03-26T10:17:42;5.67;;;2.60;;
16254;SDS011;8235;52.198;9.904;2023-03-26T10:20:25;7.07;;;2.90;;
16254;SDS011;8235;52.198;9.904;2023-03-26T10:23:01;8.57;;;3.27;;
16254;SDS011;8235;52.198;9.904;2023-03-26T10:25:43;6.53;;;2.83;;
16254;SDS011;8235;52.198;9.904;2023-03-26T10:28:26;3.30;;;2.13;;
16254;SDS011;8235;52.198;9.904;2023-03-26T10:31:09;5.47;;;2.90;;
16254;SDS011;8235;52.198;9.904;2023-03-26T10:33:50;6.50;;;2.67;;
16254;SDS011;8235;52.198;9.904;2023-03-26T10:36:28;4.83;;;2.60;;
16254;SDS011;8235;52.198;9.904;2023-03-26T10:39:02;4.03;;;2.40;;
16254;SDS011;8235;52.198;9.904;2023-03-26T10:41:42;7.97;;;3.20;;
16254;SDS011;8235;52.198;9.904;2023-03-26T10:44:29;4.17;;;2.67;;
16254;SDS011;8235;52.198;9.904;2023-03-26T10:47:16;5.17;;;2.40;;
16254;SDS011;8235;52.198;9.904;2023-03-26T10:50:02;7.40;;;2.97;;
16254;SDS011;8235;52.198;9.904;2023-03-26T10:52:56;5.07;;;2.73;;
16254;SDS011;8235;52.198;9.904;2023-03-26T10:55:28;4.40;;;2.63;;
16254;SDS011;8235;52.198;9.904;2023-03-26T10:57:59;5.77;;;3.17;;
16254;SDS011;8235;52.198;9.904;2023-03-26T11:00:31;5.07;;;2.30;;
16254;SDS011;8235;52.198;9.904;2023-03-26T11:03:09;3.27;;;1.90;;
16254;SDS011;8235;52.198;9.904;2023-03-26T11:05:45;3.50;;;1.90;;
16254;SDS011;8235;52.198;9.904;2023-03-26T11:08:18;8.13;;;2.90;;
16254;SDS011;8235;52.198;9.904;2023-03-26T11:10:49;5.30;;;2.83;;
16254;SDS011;8235;52.198;9.904;2023-03-26T11:13:24;6.20;;;2.30;;
16254;SDS011;8235;52.198;9.904;2023-03-26T11:16:04;4.17;;;2.23;;
16254;SDS011;8235;52.198;9.904;2023-03-26T11:18:40;4.97;;;2.20;;
16254;SDS011;8235;52.198;9.904;2023-03-26T11:21:13;6.63;;;2.63;;
16254;SDS011;8235;52.198;9.904;2023-03-26T11:23:48;5.30;;;2.00;;
16254;SDS011;8235;52.198;9.904;2023-03-26T11:26:28;4.43;;;1.67;;
16254;SDS011;8235;52.198;9.904;2023-03-26T11:29:05;2.30;;;1.53;;
16254;SDS011;8235;52.198;9.904;2023-03-26T11:31:49;3.87;;;1.93;;
16254;SDS011;8235;52.198;9.904;2023-03-26T11:34:26;4.20;;;2.17;;
16254;SDS011;8235;52.198;9.904;2023-03-26T11:36:56;5.50;;;2.03;;
16254;SDS011;8235;52.198;9.904;2023-03-26T11:39:27;5.40;;;2.53;;
16254;SDS011;8235;52.198;9.904;2023-03-26T11:42:00;7.23;;;2.30;;
16254;SDS011;8235;52.198;9.904;2023-03-26T11:44:31;4.57;;;1.73;;
16254;SDS011;8235;52.198;9.904;2023-03-26T11:47:04;4.47;;;2.17;;
16254;SDS011;8235;52.198;9.904;2023-03-26T11:49:35;3.80;;;2.00;;
16254;SDS011;8235;52.198;9.904;2023-03-26T11:52:03;4.07;;;2.30;;
16254;SDS011;8235;52.198;9.904;2023-03-26T11:54:31;4.93;;;2.40;;
16254;SDS011;8235;52.198;9.904;2023-03-26T11:56:59;3.87;;;2.10;;
16254;SDS011;8235;52.198;9.904;2023-03-26T11:59:29;4.27;;;2.20;;
16254;SDS011;8235;52.198;9.904;2023-03-26T12:02:14;6.17;;;2.67;;
16254;SDS011;8235;52.198;9.904;2023-03-26T12:04:45;5.63;;;2.33;;
16254;SDS011;8235;52.198;9.904;2023-03-26T12:07:19;9.20;;;3.03;;
16254;SDS011;8235;52.198;9.904;2023-03-26T12:09:48;4.47;;;2.40;;
16254;SDS011;8235;52.198;9.904;2023-03-26T12:12:16;4.70;;;2.37;;
16254;SDS011;8235;52.198;9.904;2023-03-26T12:14:43;4.80;;;2.90;;
16254;SDS011;8235;52.198;9.904;2023-03-26T12:17:11;4.93;;;2.30;;
16254;SDS011;8235;52.198;9.904;2023-03-26T12:19:39;3.93;;;2.90;;
16254;SDS011;8235;52.198;9.904;2023-03-26T12:25:01;3.53;;;2.50;;
16254;SDS011;8235;52.198;9.904;2023-03-26T12:27:39;5.60;;;2.70;;
16254;SDS011;8235;52.198;9.904;2023-03-26T12:30:09;9.13;;;3.50;;
16254;SDS011;8235;52.198;9.904;2023-03-26T12:32:38;7.07;;;3.10;;
16254;SDS011;8235;52.198;9.904;2023-03-26T12:35:09;4.70;;;2.57;;
16254;SDS011;8235;52.198;9.904;2023-03-26T12:37:44;5.47;;;2.83;;
16254;SDS011;8235;52.198;9.904;2023-03-26T12:40:25;5.23;;;3.30;;
16254;SDS011;8235;52.198;9.904;2023-03-26T12:42:54;5.30;;;2.93;;
16254;SDS011;8235;52.198;9.904;2023-03-26T12:45:27;7.33;;;3.73;;
16254;SDS011;8235;52.198;9.904;2023-03-26T12:47:55;4.83;;;2.93;;
16254;SDS011;8235;52.198;9.904;2023-03-26T12:50:24;6.60;;;3.27;;
16254;SDS011;8235;52.198;9.904;2023-03-26T12:52:58;6.23;;;3.10;;
16254;SDS011;8235;52.198;9.904;2023-03-26T12:55:38;5.50;;;3.20;;
16254;SDS011;8235;52.198;9.904;2023-03-26T12:58:15;5.97;;;2.67;;
16254;SDS011;8235;52.198;9.904;2023-03-26T13:00:52;4.87;;;3.10;;
16254;SDS011;8235;52.198;9.904;2023-03-26T13:03:34;4.77;;;2.70;;
16254;SDS011;8235;52.198;9.904;2023-03-26T13:06:11;4.60;;;2.60;;
16254;SDS011;8235;52.198;9.904;2023-03-26T13:11:58;6.30;;;2.50;;
16254;SDS011;8235;52.198;9.904;2023-03-26T13:14:41;7.33;;;3.03;;
16254;SDS011;8235;52.198;9.904;2023-03-26T13:17:22;5.73;;;3.40;;
16254;SDS011;8235;52.198;9.904;2023-03-26T13:19:58;5.53;;;3.53;;
16254;SDS011;8235;52.198;9.904;2023-03-26T13:22:32;5.30;;;2.80;;
16254;SDS011;8235;52.198;9.904;2023-03-26T13:25:08;5.97;;;3.40;;
16254;SDS011;8235;52.198;9.904;2023-03-26T13:27:47;5.17;;;3.30;;
16254;SDS011;8235;52.198;9.904;2023-03-26T13:30:24;4.97;;;2.80;;
16254;SDS011;8235;52.198;9.904;2023-03-26T13:33:04;9.80;;;3.70;;
16254;SDS011;8235;52.198;9.904;2023-03-26T13:35:45;5.83;;;3.30;;
16254;SDS011;8235;52.198;9.904;2023-03-26T13:38:18;8.93;;;4.17;;
16254;SDS011;8235;52.198;9.904;2023-03-26T13:40:58;6.50;;;3.73;;
16254;SDS011;8235;52.198;9.904;2023-03-26T13:43:36;5.23;;;2.93;;
16254;SDS011;8235;52.198;9.904;2023-03-26T13:46:13;4.87;;;3.10;;
16254;SDS011;8235;52.198;9.904;2023-03-26T13:48:47;6.53;;;3.30;;
16254;SDS011;8235;52.198;9.904;2023-03-26T13:51:19;4.13;;;2.60;;
16254;SDS011;8235;52.198;9.904;2023-03-26T13:53:49;6.73;;;2.93;;
16254;SDS011;8235;52.198;9.904;2023-03-26T13:56:24;2.90;;;2.10;;
16254;SDS011;8235;52.198;9.904;2023-03-26T13:58:56;3.70;;;2.10;;
16254;SDS011;8235;52.198;9.904;2023-03-26T14:01:27;3.00;;;2.10;;
16254;SDS011;8235;52.198;9.904;2023-03-26T14:04:00;4.27;;;2.10;;
16254;SDS011;8235;52.198;9.904;2023-03-26T14:06:35;3.83;;;2.10;;
16254;SDS011;8235;52.198;9.904;2023-03-26T14:09:09;3.00;;;1.90;;
16254;SDS011;8235;52.198;9.904;2023-03-26T14:11:45;4.07;;;2.00;;
16254;SDS011;8235;52.198;9.904;2023-03-26T14:14:22;1.80;;;1.17;;
16254;SDS011;8235;52.198;9.904;2023-03-26T14:16:56;1.23;;;1.13;;
16254;SDS011;8235;52.198;9.904;2023-03-26T14:19:39;1.60;;;1.40;;
16254;SDS011;8235;52.198;9.904;2023-03-26T14:22:17;2.23;;;1.60;;
16254;SDS011;8235;52.198;9.904;2023-03-26T14:24:52;1.40;;;1.10;;
16254;SDS011;8235;52.198;9.904;2023-03-26T14:27:32;2.53;;;1.60;;
16254;SDS011;8235;52.198;9.904;2023-03-26T14:30:16;2.63;;;1.50;;
16254;SDS011;8235;52.198;9.904;2023-03-26T14:33:01;2.03;;;1.70;;
16254;SDS011;8235;52.198;9.904;2023-03-26T14:35:37;1.30;;;1.13;;
16254;SDS011;8235;52.198;9.904;2023-03-26T14:41:20;2.90;;;1.40;;
16254;SDS011;8235;52.198;9.904;2023-03-26T14:47:12;2.30;;;1.30;;
16254;SDS011;8235;52.198;9.904;2023-03-26T14:52:45;3.80;;;1.97;;
16254;SDS011;8235;52.198;9.904;2023-03-26T14:55:14;4.03;;;3.30;;
16254;SDS011;8235;52.198;9.904;2023-03-26T14:57:58;4.07;;;3.67;;
16254;SDS011;8235;52.198;9.904;2023-03-26T15:12:57;3.33;;;1.90;;
16254;SDS011;8235;52.198;9.904;2023-03-26T15:18:44;1.73;;;1.63;;
16254;SDS011;8235;52.198;9.904;2023-03-26T15:27:57;1.27;;;1.13;;
16254;SDS011;8235;52.198;9.904;2023-03-26T15:30:59;2.40;;;1.57;;
16254;SDS011;8235;52.198;9.904;2023-03-26T15:37:17;5.73;;;3.30;;
16254;SDS011;8235;52.198;9.904;2023-03-26T15:43:12;7.70;;;5.23;;
16254;SDS011;8235;52.198;9.904;2023-03-26T15:45:41;4.20;;;2.90;;
16254;SDS011;8235;52.198;9.904;2023-03-26T15:51:21;5.00;;;4.30;;
16254;SDS011;8235;52.198;9.904;2023-03-26T15:54:05;4.70;;;2.47;;
16254;SDS011;8235;52.198;9.904;2023-03-26T15:56:42;3.20;;;2.10;;
16254;SDS011;8235;52.198;9.904;2023-03-26T15:59:22;4.13;;;3.50;;
16254;SDS011;8235;52.198;9.904;2023-03-26T16:02:01;4.27;;;3.50;;
16254;SDS011;8235;52.198;9.904;2023-03-26T16:04:42;3.07;;;1.73;;
16254;SDS011;8235;52.198;9.904;2023-03-26T16:07:23;3.83;;;2.53;;
16254;SDS011;8235;52.198;9.904;2023-03-26T16:10:09;3.10;;;2.67;;
16254;SDS011;8235;52.198;9.904;2023-03-26T16:12:45;3.30;;;2.07;;
16254;SDS011;8235;52.198;9.904;2023-03-26T16:15:22;4.00;;;1.90;;
16254;SDS011;8235;52.198;9.904;2023-03-26T16:18:16;2.00;;;1.73;;
16254;SDS011;8235;52.198;9.904;2023-03-26T16:20:50;2.67;;;1.90;;
16254;SDS011;8235;52.198;9.904;2023-03-26T16:23:26;3.73;;;1.63;;
16254;SDS011;8235;52.198;9.904;2023-03-26T16:25:58;4.03;;;1.93;;
16254;SDS011;8235;52.198;9.904;2023-03-26T16:31:29;5.03;;;2.30;;
16254;SDS011;8235;52.198;9.904;2023-03-26T16:34:19;5.20;;;2.00;;
16254;SDS011;8235;52.198;9.904;2023-03-26T16:36:51;4.50;;;2.63;;
16254;SDS011;8235;52.198;9.904;2023-03-26T16:39:20;5.50;;;2.10;;
16254;SDS011;8235;52.198;9.904;2023-03-26T16:41:56;3.70;;;1.57;;
16254;SDS011;8235;52.198;9.904;2023-03-26T16:44:33;6.93;;;1.63;;
16254;SDS011;8235;52.198;9.904;2023-03-26T16:47:13;6.20;;;1.80;;